North Platte Regional Airport Lee Bird Field
KLBF : rendu visible

Aérodrome :











RETROUVEZ-NOUS SUR...

 
LOGIN :

S'inscrire | Disclaimer

   EN    FR    IT 

 









Légende :    VFR   VFR Marginal   IFR   IFR Intensif   IFR Très Intensif
Visi : 
Plafond : 
>= 8 km
>= 3000ft
5 à 8 km
1000 à 3000 ft
1500m à 5 km
500 à 1000 ft
800 à 1500m
200 à 500 ft
< 800m
< 200 ft
Symboles :   Orages  Brouillard  Fortes neiges  Fortes précipitations  Vent > 20 kt






- Altitude de l'aérodrome : 2777 ft
- Code IATA : LBF


KLBF - North Platte Regional Lee Bird Field

DERNIER METAR :
  • 222253Z AUTO 21005KT 10SM CLR 02/M04 A3004 RMK AO2 SLP199 T00171044

METARs EXPIRÉS :
  • 222153Z AUTO 20011KT 10SM CLR 03/M04 A3005 RMK AO2 SLP198 T00331044
  • 222053Z AUTO 24008KT 10SM CLR 04/M07 A3006 RMK AO2 SLP200 T00391067 56030

TAF KLBF
Valide du 22 à 21h jusqu'au 23 à 18h UTC


222044Z 2221/2318 23010KT P6SM SCT100
FM230000 VRB05KT P6SM SCT250
FM231500 32010KT P6SM SCT250



MET'MAP, la Météo Aéronautique d'un coup d'oeil ! - Copyright ORBIFLY Décembre 2007 - Disclaimer

ORBIFLY MET'MAP TEAM :

Programmation & Développement : Alexandra Zaïnal
Conception & Développement : Baudouin d'Aumeries
Co-Programmation & Développement : Marc-Olivier Méhu
Soutien technique & logistique : Manuel Goepfert

Contact : metmap@orbifly.com




SOURCES & CREDITS :

   NOAA       Earth
Advisory